logo
Search for airport 
image banner adimage banner adimage banner ad
image banner ad

LOWK - Klagenfurt

Located in Klagenfurt, Austria

ICAO - LOWK, IATA - KLU

Data provided by Airmate  

General information

Coordinates: N46°38'34" E14°20'14"
Elevation is 1472 feet MSL.
 
View others Airports in Carinthia

Operational data

Special qualification required
Current time UTC:
Current local time:
Weather
METAR: LOWK 172050Z AUTO VRB01KT 9999 NCD 19/12 Q1017 NOSIG
TAF: TAF LOWK 171715Z 1718/1818 VRB04KT 9999 FEW040 TX30/1816Z TN15/1804Z
View NOTAMs / SUP AIP / TFR affecting this airport [VIEW]
Communications frequencies: [VIEW]

Runways:

RWY identifierQFULength (ft)Width (ft)SurfaceLDA (ft)
10R106°242790GRS
28L286°242790GRS
10L106°8924148CON
28R286°8924148CON

Airport contact information

Address: Klagenfurt Austria

Handlers

Austrian Airlines Ag

Austrian Airlines Ag
[VIEW][VIEW]
+435176638321

Klagenfurt Ariport Handling

Klagenfurt Ariport Handling

Satellite view of LOWK